Time;durP1;ratioP1;P1;durP2;ratioP2;P2;SDS_P1;SDS_P2;PMS_P1;PMS_P2;Temp;Humidity;BMP_temperature;BMP_pressure;BME280_temperature;BME280_humidity;BME280_pressure;Samples;Min_cycle;Max_cycle;Signal;HPM_P1;HPM_P2
2023/05/15 00:01:34;;;;;;;13.05;8.23;;;17.20;96.80;;;;;;10426280;28;20032;-67
2023/05/15 00:06:34;;;;;;;12.02;7.85;;;17.30;96.80;;;;;;10429682;28;20021;-67
2023/05/15 00:11:35;;;;;;;12.77;7.95;;;17.10;96.70;;;;;;10426335;28;20029;-66
2023/05/15 00:16:36;;;;;;;12.00;7.95;;;17.10;96.70;;;;;;10432631;28;20032;-67
2023/05/15 00:21:36;;;;;;;12.07;8.70;;;17.00;96.70;;;;;;10432279;28;20048;-67
2023/05/15 00:26:37;;;;;;;11.30;8.02;;;17.10;96.70;;;;;;10430844;28;20536;-67
2023/05/15 00:31:37;;;;;;;12.20;8.65;;;17.00;96.70;;;;;;10424529;28;20523;-67
2023/05/15 00:36:38;;;;;;;12.68;7.88;;;17.00;96.70;;;;;;10421353;28;20029;-67
2023/05/15 00:41:40;;;;;;;12.38;8.75;;;17.00;96.70;;;;;;10425846;28;20090;-67
2023/05/15 00:46:44;;;;;;;13.50;8.60;;;17.00;96.70;;;;;;10429381;28;20083;-67
2023/05/15 00:51:44;;;;;;;13.05;8.07;;;16.90;96.70;;;;;;10430977;28;20037;-66
2023/05/15 00:56:46;;;;;;;12.43;7.88;;;16.90;96.70;;;;;;10435113;28;20481;-67
2023/05/15 01:01:47;;;;;;;12.85;8.05;;;16.90;96.70;;;;;;10428401;28;20025;-67
2023/05/15 01:06:48;;;;;;;15.27;8.93;;;16.90;96.70;;;;;;10429740;28;20021;-66
2023/05/15 01:11:52;;;;;;;14.13;8.75;;;16.80;96.60;;;;;;10429027;28;20035;-67
2023/05/15 01:16:52;;;;;;;12.77;8.27;;;16.80;96.60;;;;;;10430698;28;20029;-67
2023/05/15 01:22:02;;;;;;;14.35;9.27;;;16.80;96.60;;;;;;10423842;28;20090;-67
2023/05/15 01:27:12;;;;;;;14.23;8.82;;;16.80;96.70;;;;;;10436732;28;20047;-67
2023/05/15 01:32:28;;;;;;;13.45;8.48;;;16.70;96.70;;;;;;10431634;28;20508;-67
2023/05/15 01:37:33;;;;;;;14.82;8.77;;;16.70;96.60;;;;;;10412339;28;20071;-67
2023/05/15 01:42:39;;;;;;;13.32;8.90;;;16.70;96.70;;;;;;10419451;28;20021;-66
2023/05/15 01:47:46;;;;;;;15.38;8.23;;;16.70;96.70;;;;;;10426393;28;20033;-67
2023/05/15 01:52:52;;;;;;;12.83;8.33;;;16.70;96.70;;;;;;10430985;28;20040;-67
2023/05/15 01:57:55;;;;;;;14.63;8.45;;;16.60;96.60;;;;;;10429383;28;20104;-66
2023/05/15 02:02:57;;;;;;;13.35;8.55;;;16.60;96.70;;;;;;10423908;28;20370;-67
2023/05/15 02:07:59;;;;;;;13.63;8.15;;;16.60;96.70;;;;;;10425408;28;20027;-67
2023/05/15 02:13:00;;;;;;;15.15;8.98;;;16.50;96.60;;;;;;10429513;28;20028;-67
2023/05/15 02:18:01;;;;;;;14.95;8.55;;;16.50;96.70;;;;;;10416583;28;20025;-67
2023/05/15 02:23:01;;;;;;;12.18;7.88;;;16.50;96.60;;;;;;10416267;28;20033;-67
2023/05/15 02:28:06;;;;;;;12.25;8.02;;;16.40;96.60;;;;;;10414222;28;20113;-66
2023/05/15 02:33:24;;;;;;;12.57;8.63;;;16.40;96.60;;;;;;10414363;28;20022;-67
2023/05/15 02:38:43;;;;;;;12.67;8.57;;;16.40;96.60;;;;;;10411163;28;20017;-67
2023/05/15 02:43:45;;;;;;;13.25;8.68;;;16.40;96.60;;;;;;10420849;28;20112;-67
2023/05/15 02:48:47;;;;;;;11.57;7.78;;;16.40;96.70;;;;;;10423144;28;20255;-66
2023/05/15 02:53:48;;;;;;;13.20;8.65;;;16.30;96.70;;;;;;10422561;28;20033;-67
2023/05/15 02:58:49;;;;;;;12.82;8.35;;;16.30;96.60;;;;;;10425078;28;21427;-67
2023/05/15 03:03:49;;;;;;;12.52;8.43;;;16.30;96.70;;;;;;10429234;28;20029;-67
2023/05/15 03:08:50;;;;;;;11.57;7.78;;;16.30;96.90;;;;;;10427725;28;20497;-67
2023/05/15 03:13:50;;;;;;;12.80;8.07;;;16.30;96.70;;;;;;10419396;28;20107;-66
2023/05/15 03:18:51;;;;;;;13.32;8.13;;;16.30;96.60;;;;;;10423750;28;20086;-66
2023/05/15 03:23:52;;;;;;;12.55;8.27;;;16.20;96.60;;;;;;10431856;28;20033;-67
2023/05/15 03:28:53;;;;;;;14.88;8.35;;;16.20;96.60;;;;;;10433997;28;20036;-66
2023/05/15 03:33:54;;;;;;;13.20;8.38;;;16.20;96.60;;;;;;10431427;28;20033;-67
2023/05/15 03:38:55;;;;;;;14.35;8.75;;;16.20;96.60;;;;;;10425591;28;20029;-66
2023/05/15 03:43:55;;;;;;;11.45;7.25;;;16.20;96.60;;;;;;10438132;28;20041;-66
2023/05/15 03:48:56;;;;;;;13.93;8.00;;;16.10;96.60;;;;;;10430332;28;20408;-66
2023/05/15 03:53:56;;;;;;;10.77;7.63;;;16.10;96.60;;;;;;10435436;28;20025;-67
2023/05/15 03:58:58;;;;;;;11.35;6.90;;;16.10;96.60;;;;;;10427960;28;20055;-66
2023/05/15 04:03:58;;;;;;;12.70;7.72;;;16.10;96.60;;;;;;10437897;28;20112;-66
2023/05/15 04:08:59;;;;;;;12.18;8.50;;;16.00;96.60;;;;;;10436054;28;20036;-66
2023/05/15 04:14:00;;;;;;;12.63;8.20;;;16.00;96.60;;;;;;10437377;28;20017;-66
2023/05/15 04:19:00;;;;;;;10.90;7.35;;;16.10;96.60;;;;;;10434103;28;20028;-66
2023/05/15 04:24:01;;;;;;;10.45;7.38;;;16.00;96.60;;;;;;10437103;28;20035;-66
2023/05/15 04:29:02;;;;;;;11.60;7.38;;;16.00;96.60;;;;;;10436001;28;20037;-67
2023/05/15 04:34:03;;;;;;;11.13;7.43;;;15.90;96.50;;;;;;10416129;28;20060;-66
2023/05/15 04:39:05;;;;;;;11.70;7.40;;;15.90;96.60;;;;;;10435000;28;20024;-66
2023/05/15 04:44:07;;;;;;;11.55;7.25;;;15.90;96.50;;;;;;10432587;28;20040;-66
2023/05/15 04:49:07;;;;;;;9.98;7.20;;;15.90;96.50;;;;;;10423347;28;20021;-66
2023/05/15 04:54:08;;;;;;;10.35;6.80;;;15.90;96.50;;;;;;10439763;28;20029;-66
2023/05/15 04:59:09;;;;;;;10.70;7.07;;;15.80;96.50;;;;;;10432089;28;20040;-66
2023/05/15 05:04:10;;;;;;;11.63;6.90;;;15.90;96.50;;;;;;10431989;28;20441;-67
2023/05/15 05:09:11;;;;;;;10.73;6.85;;;15.80;96.40;;;;;;10429153;28;20021;-66
2023/05/15 05:14:13;;;;;;;10.18;6.82;;;15.90;96.50;;;;;;10432658;28;20042;-66
2023/05/15 05:19:13;;;;;;;11.20;6.97;;;15.80;96.40;;;;;;10426661;28;20477;-66
2023/05/15 05:24:14;;;;;;;11.85;7.07;;;15.90;96.40;;;;;;10426840;28;20033;-66
2023/05/15 05:29:15;;;;;;;11.65;7.25;;;15.80;96.40;;;;;;10417966;28;20066;-67
2023/05/15 05:34:15;;;;;;;10.15;7.15;;;15.80;96.40;;;;;;10424231;28;20028;-66
2023/05/15 05:39:16;;;;;;;9.20;6.47;;;15.90;96.40;;;;;;10427377;28;20515;-66
2023/05/15 05:44:17;;;;;;;9.18;6.95;;;15.80;96.30;;;;;;10430669;28;20488;-67
2023/05/15 05:49:17;;;;;;;10.20;6.53;;;15.80;96.30;;;;;;10429648;28;20507;-66
2023/05/15 05:54:18;;;;;;;9.60;6.35;;;15.80;96.30;;;;;;10434942;28;20027;-66
2023/05/15 05:59:19;;;;;;;10.50;6.70;;;15.80;96.30;;;;;;10420082;28;20070;-66
2023/05/15 06:04:20;;;;;;;10.57;6.43;;;15.80;96.30;;;;;;10407680;28;20524;-66
2023/05/15 06:09:20;;;;;;;9.90;6.10;;;15.80;96.30;;;;;;10410067;28;20252;-66
2023/05/15 06:14:22;;;;;;;11.02;6.70;;;15.80;96.30;;;;;;10406776;28;20021;-67
2023/05/15 06:19:22;;;;;;;9.55;5.78;;;15.80;96.20;;;;;;10417412;28;20035;-66
2023/05/15 06:24:23;;;;;;;10.57;6.45;;;15.80;96.20;;;;;;10415831;28;20512;-66
2023/05/15 06:29:23;;;;;;;9.00;6.00;;;15.80;96.20;;;;;;10406749;28;20393;-67
2023/05/15 06:34:24;;;;;;;8.32;5.85;;;15.80;96.20;;;;;;10425930;28;20140;-67
2023/05/15 06:39:25;;;;;;;9.57;6.45;;;15.80;96.20;;;;;;10421623;28;20114;-66
2023/05/15 06:44:29;;;;;;;7.95;5.97;;;15.80;96.10;;;;;;10418929;28;20416;-66
2023/05/15 06:49:30;;;;;;;10.50;6.15;;;15.80;96.10;;;;;;10413081;28;20264;-66
2023/05/15 06:54:30;;;;;;;10.27;6.03;;;15.80;96.10;;;;;;10422578;28;20021;-66
2023/05/15 06:59:34;;;;;;;9.00;6.38;;;15.80;96.10;;;;;;10420020;28;20435;-66
2023/05/15 07:04:34;;;;;;;7.53;5.50;;;15.80;96.10;;;;;;10423774;28;20025;-66
2023/05/15 07:09:35;;;;;;;8.32;5.68;;;15.80;96.00;;;;;;10424958;28;20512;-66
2023/05/15 07:14:36;;;;;;;8.55;5.63;;;15.80;95.90;;;;;;10416661;28;20021;-66
2023/05/15 07:19:36;;;;;;;9.43;5.75;;;15.90;95.90;;;;;;10415831;28;20039;-66
2023/05/15 07:24:37;;;;;;;8.07;5.75;;;15.80;95.80;;;;;;10409032;28;20030;-66
2023/05/15 07:29:38;;;;;;;7.93;6.10;;;15.80;95.80;;;;;;10412376;28;20030;-67
2023/05/15 07:34:39;;;;;;;8.70;6.10;;;15.90;95.80;;;;;;10415416;28;20477;-66
2023/05/15 07:39:39;;;;;;;7.90;5.43;;;15.90;95.80;;;;;;10402802;28;20427;-67
2023/05/15 07:44:40;;;;;;;7.57;5.50;;;15.90;95.80;;;;;;10411874;28;20045;-66
2023/05/15 07:49:40;;;;;;;7.45;5.43;;;15.90;95.80;;;;;;10410703;28;20082;-66
2023/05/15 07:54:41;;;;;;;7.25;5.05;;;15.90;95.70;;;;;;10411763;28;20071;-66
2023/05/15 07:59:42;;;;;;;8.35;5.28;;;16.00;95.70;;;;;;10416509;28;20504;-66
2023/05/15 08:04:42;;;;;;;7.60;5.45;;;16.00;95.70;;;;;;10415284;28;20608;-66
2023/05/15 08:09:43;;;;;;;7.70;5.38;;;16.00;95.70;;;;;;10426339;28;20039;-67
2023/05/15 08:14:44;;;;;;;8.20;5.22;;;16.00;95.70;;;;;;10422432;28;20038;-67
2023/05/15 08:19:44;;;;;;;7.68;5.25;;;16.00;95.70;;;;;;10419197;28;20056;-67
2023/05/15 08:24:45;;;;;;;8.65;5.40;;;16.00;95.70;;;;;;10423536;28;20447;-67
2023/05/15 08:29:46;;;;;;;8.35;5.30;;;16.10;95.70;;;;;;10420159;28;20024;-67
2023/05/15 08:34:46;;;;;;;7.78;4.82;;;16.20;95.70;;;;;;10420908;28;20455;-67
2023/05/15 08:39:47;;;;;;;7.80;5.20;;;16.20;95.60;;;;;;10422649;28;20071;-67
2023/05/15 08:44:48;;;;;;;7.40;4.88;;;16.30;95.70;;;;;;10419761;28;20029;-67
2023/05/15 08:50:07;;;;;;;10.32;6.38;;;16.20;95.60;;;;;;10422611;28;20094;-67
2023/05/15 08:55:11;;;;;;;7.60;5.60;;;16.20;95.60;;;;;;10427806;28;20025;-67
2023/05/15 09:00:13;;;;;;;8.90;5.40;;;16.30;95.60;;;;;;10423860;28;20026;-67
2023/05/15 09:05:13;;;;;;;7.55;5.45;;;16.30;95.60;;;;;;10422980;28;20029;-67
2023/05/15 09:10:15;;;;;;;7.88;4.97;;;16.30;95.60;;;;;;10424640;28;20029;-67
2023/05/15 09:15:21;;;;;;;7.20;5.50;;;16.40;95.60;;;;;;10423629;28;20013;-67
2023/05/15 09:20:36;;;;;;;9.25;5.38;;;16.40;95.60;;;;;;10417813;28;20062;-67
2023/05/15 09:25:39;;;;;;;6.03;4.68;;;16.40;95.50;;;;;;10424230;28;20029;-67
2023/05/15 09:30:41;;;;;;;7.13;5.38;;;16.50;95.50;;;;;;10426122;28;20020;-67
2023/05/15 09:35:42;;;;;;;8.80;5.20;;;16.40;95.50;;;;;;10421678;28;20021;-67
2023/05/15 09:40:43;;;;;;;6.65;4.82;;;16.50;95.50;;;;;;10418997;28;20484;-67
2023/05/15 09:45:47;;;;;;;6.78;5.22;;;16.60;95.50;;;;;;10418107;28;20079;-67
2023/05/15 09:50:48;;;;;;;8.07;5.55;;;16.60;95.40;;;;;;10423456;28;20469;-67
2023/05/15 09:55:49;;;;;;;7.40;4.93;;;16.80;95.50;;;;;;10420099;28;20052;-67
2023/05/15 10:00:50;;;;;;;10.85;6.30;;;16.80;95.40;;;;;;10426933;28;20401;-67
2023/05/15 10:05:59;;;;;;;7.90;5.18;;;16.80;95.30;;;;;;10422790;28;20033;-67
2023/05/15 10:11:02;;;;;;;9.68;6.45;;;16.90;95.30;;;;;;10416614;28;20048;-67
2023/05/15 10:16:04;;;;;;;9.60;6.32;;;16.90;95.20;;;;;;10420176;28;20152;-67
2023/05/15 10:21:05;;;;;;;9.40;6.40;;;17.00;95.20;;;;;;10423645;28;20531;-67
2023/05/15 10:26:14;;;;;;;9.27;6.13;;;17.10;95.10;;;;;;10425637;28;20033;-67
2023/05/15 10:31:17;;;;;;;8.77;5.70;;;17.10;95.10;;;;;;10422637;28;20040;-67
2023/05/15 10:36:19;;;;;;;7.10;5.47;;;17.20;95.10;;;;;;10420825;28;20620;-67
2023/05/15 10:41:21;;;;;;;9.35;5.65;;;17.20;95.10;;;;;;10418606;28;20037;-67
2023/05/15 10:46:22;;;;;;;7.68;5.97;;;17.20;95.10;;;;;;10420476;28;20056;-67
2023/05/15 10:51:29;;;;;;;9.05;5.72;;;17.30;95.00;;;;;;10424578;28;20051;-67
2023/05/15 10:56:31;;;;;;;7.78;5.50;;;17.30;95.00;;;;;;10411737;28;20017;-67
2023/05/15 11:01:36;;;;;;;9.45;6.05;;;17.40;94.90;;;;;;10420030;28;20029;-67
2023/05/15 11:06:44;;;;;;;8.48;5.97;;;17.40;94.90;;;;;;10424763;28;20036;-67
2023/05/15 11:11:50;;;;;;;7.93;5.55;;;17.50;94.90;;;;;;10421545;28;20032;-67
2023/05/15 11:16:54;;;;;;;8.10;5.82;;;17.50;94.90;;;;;;10429923;28;20494;-67
2023/05/15 11:22:07;;;;;;;7.88;5.53;;;17.70;94.90;;;;;;10425479;28;20145;-67
2023/05/15 11:27:12;;;;;;;9.75;5.13;;;17.60;94.90;;;;;;10429384;28;20518;-67
2023/05/15 11:32:41;;;;;;;7.10;5.15;;;17.70;94.80;;;;;;10422421;28;20112;-67
2023/05/15 11:37:44;;;;;;;6.55;4.93;;;17.80;94.80;;;;;;10425361;28;20030;-67
2023/05/15 11:43:15;;;;;;;7.15;4.78;;;17.80;94.80;;;;;;10432791;28;20475;-67
2023/05/15 11:48:16;;;;;;;6.57;4.68;;;17.80;94.80;;;;;;10425554;28;20503;-67
2023/05/15 11:53:18;;;;;;;8.27;4.65;;;18.00;94.70;;;;;;10433163;28;20497;-67
2023/05/15 11:58:20;;;;;;;5.60;4.10;;;18.00;94.70;;;;;;10438945;28;20024;-67
2023/05/15 12:03:25;;;;;;;5.80;4.97;;;18.10;94.70;;;;;;10431121;28;20033;-67
2023/05/15 12:08:30;;;;;;;6.22;4.97;;;18.50;94.80;;;;;;10427465;28;20508;-67
2023/05/15 12:13:31;;;;;;;6.78;4.63;;;18.20;94.60;;;;;;10435625;28;20017;-67
2023/05/15 12:18:33;;;;;;;4.78;4.03;;;18.20;94.60;;;;;;10427411;28;20033;-67
2023/05/15 12:23:33;;;;;;;5.57;4.15;;;18.30;94.60;;;;;;10437104;28;20408;-67
2023/05/15 12:28:35;;;;;;;5.38;4.13;;;18.30;94.60;;;;;;10435412;28;20091;-67
2023/05/15 12:33:35;;;;;;;6.38;4.78;;;18.40;94.60;;;;;;10428098;28;20040;-67
2023/05/15 12:38:36;;;;;;;4.35;3.88;;;18.40;94.50;;;;;;10407069;28;20116;-67
2023/05/15 12:43:37;;;;;;;6.07;4.30;;;18.50;94.50;;;;;;10433510;28;20032;-67
2023/05/15 12:48:39;;;;;;;4.90;3.90;;;18.50;94.50;;;;;;10426052;28;20028;-67
2023/05/15 12:53:41;;;;;;;3.70;3.33;;;18.50;94.50;;;;;;10424541;28;20052;-67
2023/05/15 12:58:41;;;;;;;4.53;3.70;;;18.50;94.50;;;;;;10419172;28;20056;-67
2023/05/15 13:03:43;;;;;;;4.60;3.58;;;18.60;94.70;;;;;;10409787;28;20108;-67
2023/05/15 13:08:43;;;;;;;4.43;3.50;;;18.60;94.70;;;;;;10424815;28;20129;-67
2023/05/15 13:13:44;;;;;;;4.80;3.95;;;18.60;94.80;;;;;;10425386;28;20033;-67
2023/05/15 13:18:45;;;;;;;5.38;4.18;;;18.60;94.90;;;;;;10426272;28;20028;-67
2023/05/15 13:23:46;;;;;;;4.88;3.78;;;18.50;94.80;;;;;;10421992;28;20075;-67
2023/05/15 13:28:46;;;;;;;3.65;3.20;;;18.60;94.90;;;;;;10426447;28;20106;-67
2023/05/15 13:33:47;;;;;;;4.45;3.70;;;18.60;94.90;;;;;;10422580;28;20507;-67
2023/05/15 13:38:48;;;;;;;4.75;3.60;;;18.60;94.90;;;;;;10407978;28;20044;-67
2023/05/15 13:43:48;;;;;;;5.00;3.58;;;18.60;94.90;;;;;;10426137;28;20032;-67
2023/05/15 13:48:49;;;;;;;3.38;2.95;;;18.60;94.90;;;;;;10421893;28;20040;-67
2023/05/15 13:53:50;;;;;;;4.22;3.17;;;18.60;94.90;;;;;;10428628;28;20025;-67
2023/05/15 13:58:51;;;;;;;4.03;3.50;;;18.60;95.00;;;;;;10423854;28;20070;-67
2023/05/15 14:03:51;;;;;;;4.03;3.63;;;18.60;95.00;;;;;;10425603;28;20036;-67
2023/05/15 14:08:52;;;;;;;3.40;3.10;;;18.60;95.10;;;;;;10433729;28;20024;-67
2023/05/15 14:13:52;;;;;;;5.28;3.40;;;18.60;95.10;;;;;;10430422;28;20086;-67
2023/05/15 14:18:53;;;;;;;5.15;3.38;;;18.70;95.10;;;;;;10425757;28;20052;-67
2023/05/15 14:23:54;;;;;;;5.47;3.65;;;18.60;95.10;;;;;;10424944;28;20116;-67
2023/05/15 14:28:54;;;;;;;3.70;3.25;;;18.70;95.20;;;;;;10428516;28;20040;-67
2023/05/15 14:34:00;;;;;;;4.38;3.20;;;18.70;95.10;;;;;;10420840;28;20026;-67
2023/05/15 14:39:03;;;;;;;4.22;3.33;;;18.70;95.10;;;;;;10420567;28;20053;-67
2023/05/15 14:44:03;;;;;;;4.13;3.30;;;18.60;95.20;;;;;;10423214;28;20437;-67
2023/05/15 14:49:04;;;;;;;4.88;3.50;;;18.60;95.20;;;;;;10413707;28;20038;-67
2023/05/15 14:54:05;;;;;;;5.65;4.13;;;18.60;95.20;;;;;;10428992;28;20025;-67
2023/05/15 14:59:06;;;;;;;4.22;3.17;;;18.60;95.30;;;;;;10423977;28;20041;-66
2023/05/15 15:04:06;;;;;;;3.92;3.17;;;18.60;95.30;;;;;;10429258;28;20474;-67
2023/05/15 15:09:07;;;;;;;4.70;3.58;;;18.60;95.40;;;;;;10435672;28;20013;-67
2023/05/15 15:14:07;;;;;;;3.75;3.33;;;18.60;95.50;;;;;;10434902;28;20065;-67
2023/05/15 15:19:08;;;;;;;4.78;3.17;;;18.50;95.50;;;;;;10436823;28;20496;-67
2023/05/15 15:24:08;;;;;;;5.93;3.78;;;18.50;95.60;;;;;;10437906;28;20017;-67
2023/05/15 15:29:09;;;;;;;4.00;3.20;;;18.50;95.60;;;;;;10436405;28;20037;-67
2023/05/15 15:34:11;;;;;;;4.15;3.40;;;18.60;95.60;;;;;;10432306;28;20021;-67
2023/05/15 15:39:12;;;;;;;4.38;3.40;;;18.60;95.50;;;;;;10421755;28;20028;-67
2023/05/15 15:44:12;;;;;;;4.75;3.42;;;18.50;95.50;;;;;;10424731;28;20378;-67
2023/05/15 15:49:13;;;;;;;7.05;4.55;;;18.50;95.70;;;;;;10422780;28;20036;-67
2023/05/15 15:54:14;;;;;;;3.85;3.08;;;18.50;95.80;;;;;;10426748;28;20446;-67
2023/05/15 15:59:15;;;;;;;5.32;3.70;;;18.40;95.80;;;;;;10425068;28;20025;-67
2023/05/15 16:04:16;;;;;;;5.40;3.75;;;18.30;95.90;;;;;;10427219;28;20033;-67
2023/05/15 16:09:18;;;;;;;5.38;3.90;;;18.30;96.00;;;;;;10433078;28;20025;-67
2023/05/15 16:14:19;;;;;;;5.32;3.78;;;18.30;96.10;;;;;;10430760;28;20036;-67
2023/05/15 16:19:20;;;;;;;6.47;3.83;;;18.20;96.10;;;;;;10424393;28;20055;-67
2023/05/15 16:24:22;;;;;;;5.78;3.88;;;18.10;96.10;;;;;;10430174;28;20108;-67
2023/05/15 16:29:23;;;;;;;4.63;3.45;;;18.10;96.20;;;;;;10431233;28;20211;-67
2023/05/15 16:34:24;;;;;;;4.75;3.38;;;18.10;96.20;;;;;;10405927;28;20355;-67
2023/05/15 16:39:25;;;;;;;4.60;3.35;;;18.10;96.20;;;;;;10426255;28;20036;-67
2023/05/15 16:44:25;;;;;;;4.45;3.30;;;18.00;96.20;;;;;;10434535;28;20562;-67
2023/05/15 16:49:26;;;;;;;4.65;3.67;;;18.00;96.20;;;;;;10413226;28;20025;-67
2023/05/15 16:54:27;;;;;;;4.35;3.55;;;18.00;96.30;;;;;;10426215;28;20017;-67
2023/05/15 16:59:28;;;;;;;4.90;3.75;;;18.00;96.30;;;;;;10426064;28;20029;-67
2023/05/15 17:04:30;;;;;;;4.45;3.30;;;17.90;96.30;;;;;;10427431;28;20032;-67
2023/05/15 17:09:31;;;;;;;4.38;3.33;;;17.90;96.30;;;;;;10420522;28;20076;-67
2023/05/15 17:14:34;;;;;;;4.30;3.30;;;17.90;96.30;;;;;;10430470;28;20025;-67
2023/05/15 17:19:34;;;;;;;3.83;3.25;;;17.80;96.30;;;;;;10433518;28;20303;-67
2023/05/15 17:24:35;;;;;;;4.68;3.35;;;17.80;96.30;;;;;;10420635;28;20032;-67
2023/05/15 17:29:35;;;;;;;5.00;3.65;;;17.80;96.30;;;;;;10430679;28;20040;-67
2023/05/15 17:34:36;;;;;;;4.28;3.45;;;17.80;96.40;;;;;;10424353;28;20063;-67
2023/05/15 17:39:37;;;;;;;4.75;3.35;;;17.70;96.40;;;;;;10423413;28;20029;-67
2023/05/15 17:44:38;;;;;;;4.60;3.47;;;17.60;96.40;;;;;;10418281;28;20164;-67
2023/05/15 17:49:38;;;;;;;4.93;3.72;;;17.70;96.40;;;;;;10412329;28;20029;-67
2023/05/15 17:54:39;;;;;;;5.30;3.50;;;17.60;96.60;;;;;;10417612;28;20036;-67
2023/05/15 17:59:39;;;;;;;4.63;3.53;;;17.60;96.40;;;;;;10412280;28;20593;-67
2023/05/15 18:04:40;;;;;;;4.80;3.60;;;17.60;96.40;;;;;;10416922;28;20036;-67
2023/05/15 18:09:41;;;;;;;6.13;4.10;;;17.60;96.40;;;;;;10413033;28;20115;-67
2023/05/15 18:14:42;;;;;;;6.38;3.95;;;17.50;96.40;;;;;;10407108;28;20025;-67
2023/05/15 18:19:43;;;;;;;5.43;3.60;;;17.50;96.40;;;;;;10413636;28;20345;-67
2023/05/15 18:24:44;;;;;;;4.60;3.50;;;17.50;96.40;;;;;;10412499;28;20113;-66
2023/05/15 18:29:50;;;;;;;5.80;3.78;;;17.40;96.50;;;;;;10407147;28;20510;-67
2023/05/15 18:34:51;;;;;;;4.93;3.70;;;17.40;96.50;;;;;;10414293;28;20393;-67
2023/05/15 18:39:55;;;;;;;6.25;3.95;;;17.40;96.50;;;;;;10410917;28;20044;-67
2023/05/15 18:44:56;;;;;;;3.90;3.22;;;17.40;96.50;;;;;;10412058;28;20017;-67
2023/05/15 18:49:56;;;;;;;5.65;3.70;;;17.30;96.50;;;;;;10413170;28;20029;-67
2023/05/15 18:54:57;;;;;;;6.47;3.95;;;17.30;96.60;;;;;;10420645;28;20024;-67
2023/05/15 18:59:58;;;;;;;5.72;3.88;;;17.30;96.70;;;;;;10415379;28;20105;-67
2023/05/15 19:04:59;;;;;;;6.32;4.40;;;17.20;96.70;;;;;;10424498;28;20128;-67
2023/05/15 19:09:59;;;;;;;7.60;4.07;;;17.20;96.70;;;;;;10415738;28;20017;-67
2023/05/15 19:15:00;;;;;;;5.78;4.13;;;17.20;96.70;;;;;;10417379;28;20028;-67
2023/05/15 19:20:01;;;;;;;5.32;3.22;;;17.10;96.80;;;;;;10414077;28;20029;-67
2023/05/15 19:25:01;;;;;;;6.47;4.15;;;17.10;96.80;;;;;;10421751;28;20025;-67
2023/05/15 19:30:03;;;;;;;6.43;4.30;;;17.10;96.80;;;;;;10414946;28;20116;-67
2023/05/15 19:35:04;;;;;;;5.50;3.90;;;17.00;96.80;;;;;;10412069;28;20489;-67
2023/05/15 19:40:05;;;;;;;6.38;3.70;;;17.00;96.90;;;;;;10410465;28;20037;-67
2023/05/15 19:45:07;;;;;;;5.70;3.58;;;17.00;97.20;;;;;;10414788;28;20026;-67
2023/05/15 19:50:08;;;;;;;5.72;3.40;;;16.90;97.00;;;;;;10414163;28;20330;-67
2023/05/15 19:55:09;;;;;;;3.92;2.90;;;16.90;96.90;;;;;;10415560;28;20021;-67
2023/05/15 20:00:11;;;;;;;5.32;2.97;;;16.90;97.00;;;;;;10419025;28;20018;-67
2023/05/15 20:05:12;;;;;;;3.65;2.10;;;16.80;96.90;;;;;;10425325;28;20045;-67
2023/05/15 20:10:14;;;;;;;2.90;2.17;;;16.80;96.90;;;;;;10423886;28;20541;-67
2023/05/15 20:15:15;;;;;;;3.28;1.95;;;16.80;96.90;;;;;;10422286;28;20029;-67
2023/05/15 20:20:16;;;;;;;3.40;2.20;;;16.70;96.90;;;;;;10421227;28;20032;-67
2023/05/15 20:25:17;;;;;;;3.28;1.88;;;16.70;97.00;;;;;;10425228;28;20115;-67
2023/05/15 20:30:17;;;;;;;2.55;1.77;;;16.70;97.00;;;;;;10417786;28;20055;-67
2023/05/15 20:35:19;;;;;;;3.00;1.60;;;16.60;96.90;;;;;;10422939;28;20519;-67
2023/05/15 20:40:21;;;;;;;4.75;1.95;;;16.60;96.90;;;;;;10419859;28;20024;-67
2023/05/15 20:45:22;;;;;;;3.75;1.73;;;16.60;96.90;;;;;;10415925;28;20041;-67
2023/05/15 20:50:23;;;;;;;3.10;1.90;;;16.60;96.80;;;;;;10423734;28;20033;-67
2023/05/15 20:55:24;;;;;;;3.35;1.70;;;16.50;96.80;;;;;;10425346;28;20017;-66
2023/05/15 21:00:24;;;;;;;2.65;1.67;;;16.50;96.70;;;;;;10420733;28;20013;-67
2023/05/15 21:05:25;;;;;;;3.90;1.40;;;16.40;96.70;;;;;;10425835;28;20094;-66
2023/05/15 21:10:25;;;;;;;4.55;1.40;;;16.40;96.70;;;;;;10423099;28;20386;-66
2023/05/15 21:15:26;;;;;;;4.20;1.30;;;16.40;96.70;;;;;;10425006;28;20109;-66
2023/05/15 21:20:27;;;;;;;2.88;1.70;;;16.40;96.70;;;;;;10426901;28;20401;-66
2023/05/15 21:25:27;;;;;;;3.25;1.48;;;16.40;96.70;;;;;;10420388;28;20047;-66
2023/05/15 21:30:28;;;;;;;1.85;1.10;;;16.30;96.70;;;;;;10418919;28;20013;-67
2023/05/15 21:35:30;;;;;;;3.13;1.40;;;16.30;96.60;;;;;;10420841;28;20024;-66
2023/05/15 21:40:31;;;;;;;2.65;1.20;;;16.30;96.60;;;;;;10423714;28;20064;-66
2023/05/15 21:45:32;;;;;;;2.35;1.00;;;16.20;96.60;;;;;;10413733;28;20038;-66
2023/05/15 21:50:32;;;;;;;1.52;1.20;;;16.20;96.50;;;;;;10418331;28;20115;-67
2023/05/15 21:55:33;;;;;;;3.08;1.25;;;16.20;96.50;;;;;;10416773;28;20113;-66
2023/05/15 22:00:33;;;;;;;3.47;1.98;;;16.20;96.50;;;;;;10420520;28;20024;-66
2023/05/15 22:05:34;;;;;;;2.72;1.20;;;16.10;96.50;;;;;;10425756;28;20509;-67
2023/05/15 22:10:34;;;;;;;4.53;1.20;;;16.10;96.50;;;;;;10421986;28;20568;-66
2023/05/15 22:15:35;;;;;;;3.85;1.40;;;16.10;96.50;;;;;;10424970;28;20417;-66
2023/05/15 22:20:36;;;;;;;3.85;1.13;;;16.10;96.50;;;;;;10423211;28;20080;-66
2023/05/15 22:25:37;;;;;;;2.42;1.35;;;16.00;96.50;;;;;;10421474;28;20368;-66
2023/05/15 22:30:37;;;;;;;2.40;1.00;;;16.00;96.50;;;;;;10422855;28;20029;-66
2023/05/15 22:35:38;;;;;;;3.90;1.30;;;16.00;96.40;;;;;;10423696;28;20065;-66
2023/05/15 22:40:38;;;;;;;4.50;1.20;;;16.00;96.50;;;;;;10421088;28;20036;-67
2023/05/15 22:45:39;;;;;;;2.10;1.25;;;15.90;96.40;;;;;;10415252;28;20025;-66
2023/05/15 22:50:40;;;;;;;2.92;0.98;;;16.00;96.40;;;;;;10400977;28;20040;-66
2023/05/15 22:55:41;;;;;;;4.22;1.00;;;15.90;96.40;;;;;;10423900;28;20033;-66
2023/05/15 23:00:41;;;;;;;4.00;1.30;;;15.90;96.40;;;;;;10422286;28;20026;-66
2023/05/15 23:05:42;;;;;;;2.45;1.10;;;15.90;96.40;;;;;;10424892;28;20022;-66
2023/05/15 23:10:43;;;;;;;2.88;1.02;;;15.80;96.40;;;;;;10426253;28;20112;-66
2023/05/15 23:15:43;;;;;;;4.50;1.10;;;15.80;96.40;;;;;;10423782;28;20025;-66
2023/05/15 23:20:44;;;;;;;3.58;1.20;;;15.80;96.40;;;;;;10421157;28;20039;-66
2023/05/15 23:25:45;;;;;;;3.65;1.10;;;15.70;96.40;;;;;;10426166;28;20048;-66
2023/05/15 23:30:45;;;;;;;2.72;1.17;;;15.70;96.40;;;;;;10423147;28;20025;-67
2023/05/15 23:35:46;;;;;;;3.40;1.10;;;15.70;96.40;;;;;;10431035;28;20036;-67
2023/05/15 23:40:48;;;;;;;2.60;1.05;;;15.70;96.40;;;;;;10428222;28;20537;-66
2023/05/15 23:45:48;;;;;;;3.92;1.20;;;15.70;96.40;;;;;;10426261;28;20013;-66
2023/05/15 23:50:51;;;;;;;3.50;1.20;;;15.60;96.40;;;;;;10427324;28;20032;-66
2023/05/15 23:55:51;;;;;;;2.60;0.90;;;15.60;96.40;;;;;;10431975;28;20486;-66
